Time,TemperatureF,DewpointF,PressureIn,WindDirection,WindDirectionDegrees,WindSpeedMPH,WindSpeedGustMPH,Humidity,HourlyPrecipIn,Conditions,Clouds,dailyrainin,SolarRadiationWatts/m^2,SoftwareType,DateUTC
2013-02-10 00:00:00,44.2,33.2,30.23,NE,37,0.0,0.0,65,0.00,,,0.00,0,Wunderground v.1.15,2013-02-10 05:00:00,
2013-02-10 00:10:00,44.1,32.3,30.23,NE,37,0.0,0.0,63,0.00,,,0.00,0,Wunderground v.1.15,2013-02-10 05:10:00,
2013-02-10 00:30:00,44.1,31.5,30.23,NE,34,0.0,3.0,61,0.00,,,0.00,0,Wunderground v.1.15,2013-02-10 05:30:00,
2013-02-10 00:40:00,44.3,31.7,30.23,NNE,16,1.0,1.0,61,0.00,,,0.00,0,Wunderground v.1.15,2013-02-10 05:40:00,
2013-02-10 00:50:00,44.2,31.2,30.24,NNE,16,0.0,0.0,60,0.00,,,0.00,0,Wunderground v.1.15,2013-02-10 05:50:00,
2013-02-10 01:00:00,44.1,31.5,30.24,NNE,16,0.0,0.0,61,0.00,,,0.00,0,Wunderground v.1.15,2013-02-10 06:00:00,
2013-02-10 01:10:00,43.9,31.7,30.24,NNE,16,0.0,0.0,62,0.00,,,0.00,0,Wunderground v.1.15,2013-02-10 06:10:00,
2013-02-10 01:30:00,43.6,33.0,30.23,NNE,16,0.0,0.0,66,0.00,,,0.00,0,Wunderground v.1.15,2013-02-10 06:30:00,
2013-02-10 01:40:00,43.6,33.4,30.23,NNE,16,0.0,0.0,67,0.00,,,0.00,0,Wunderground v.1.15,2013-02-10 06:40:00,
2013-02-10 01:50:00,43.1,33.3,30.22,NNE,16,0.0,0.0,68,0.00,,,0.00,0,Wunderground v.1.15,2013-02-10 06:50:00,
2013-02-10 02:00:00,42.8,33.0,30.22,NNE,16,0.0,0.0,68,0.00,,,0.00,0,Wunderground v.1.15,2013-02-10 07:00:00,
2013-02-10 02:10:00,42.9,33.1,30.22,NNE,16,0.0,0.0,68,0.00,,,0.00,0,Wunderground v.1.15,2013-02-10 07:10:00,
2013-02-10 02:30:00,43.3,34.2,30.24,NNE,16,0.0,0.0,70,0.00,,,0.00,0,Wunderground v.1.15,2013-02-10 07:30:00,
2013-02-10 02:40:00,43.5,34.4,30.24,NNE,16,0.0,0.0,70,0.00,,,0.00,0,Wunderground v.1.15,2013-02-10 07:40:00,
2013-02-10 02:51:00,43.6,34.8,30.24,NNE,16,0.0,0.0,71,0.00,,,0.00,0,Wunderground v.1.15,2013-02-10 07:51:00,
2013-02-10 03:00:00,43.5,34.7,30.23,NNE,16,0.0,0.0,71,0.00,,,0.00,0,Wunderground v.1.15,2013-02-10 08:00:00,
2013-02-10 03:10:00,43.3,34.2,30.23,NNE,16,0.0,0.0,70,0.00,,,0.00,0,Wunderground v.1.15,2013-02-10 08:10:00,
2013-02-10 03:20:00,43.3,34.2,30.23,NNE,16,0.0,0.0,70,0.00,,,0.00,0,Wunderground v.1.15,2013-02-10 08:20:00,
2013-02-10 03:30:00,43.5,33.6,30.23,NNE,16,0.0,0.0,68,0.00,,,0.00,0,Wunderground v.1.15,2013-02-10 08:30:00,
2013-02-10 03:40:00,43.9,34.0,30.23,NNE,16,0.0,0.0,68,0.00,,,0.00,0,Wunderground v.1.15,2013-02-10 08:40:00,
2013-02-10 03:51:00,43.8,35.0,30.23,NNE,16,0.0,0.0,71,0.00,,,0.00,0,Wunderground v.1.15,2013-02-10 08:51:00,
2013-02-10 04:00:00,43.5,35.1,30.22,NNE,16,1.0,1.0,72,0.00,,,0.00,0,Wunderground v.1.15,2013-02-10 09:00:00,
2013-02-10 04:10:00,43.1,35.0,30.22,NNE,16,1.0,2.0,73,0.00,,,0.00,0,Wunderground v.1.15,2013-02-10 09:10:00,
2013-02-10 04:20:00,43.5,32.9,30.22,SSW,205,3.0,4.0,66,0.00,,,0.00,0,Wunderground v.1.15,2013-02-10 09:20:00,
2013-02-10 04:30:00,45.1,33.2,30.21,South,190,4.0,4.0,63,0.00,,,0.00,0,Wunderground v.1.15,2013-02-10 09:30:00,
2013-02-10 04:40:00,44.9,34.2,30.21,South,189,2.0,2.0,66,0.00,,,0.00,0,Wunderground v.1.15,2013-02-10 09:40:00,
2013-02-10 05:00:00,45.1,34.4,30.22,South,189,1.0,1.0,66,0.00,,,0.00,0,Wunderground v.1.15,2013-02-10 10:00:00,
2013-02-10 05:10:00,44.6,33.6,30.22,South,189,0.0,1.0,65,0.00,,,0.00,0,Wunderground v.1.15,2013-02-10 10:10:00,
2013-02-10 05:30:00,44.5,32.7,30.23,WNW,286,1.0,1.0,63,0.00,,,0.00,0,Wunderground v.1.15,2013-02-10 10:30:00,
2013-02-10 05:40:00,45.1,32.4,30.23,WNW,286,1.0,1.0,61,0.00,,,0.00,0,Wunderground v.1.15,2013-02-10 10:40:00,
2013-02-10 05:50:00,45.2,32.9,30.23,WNW,286,0.0,0.0,62,0.00,,,0.00,0,Wunderground v.1.15,2013-02-10 10:50:00,
2013-02-10 06:00:00,45.1,32.0,30.23,SSW,211,0.0,2.0,60,0.00,,,0.00,0,Wunderground v.1.15,2013-02-10 11:00:00,
2013-02-10 06:10:00,45.7,32.6,30.23,SSW,207,2.0,2.0,60,0.00,,,0.00,0,Wunderground v.1.15,2013-02-10 11:10:00,
2013-02-10 06:21:00,45.5,34.0,30.23,SSW,207,1.0,1.0,64,0.00,,,0.00,0,Wunderground v.1.15,2013-02-10 11:21:00,
2013-02-10 06:30:00,44.8,33.4,30.23,SSW,207,0.0,0.0,64,0.00,,,0.00,0,Wunderground v.1.15,2013-02-10 11:30:00,
2013-02-10 06:40:00,44.2,33.6,30.23,SSW,207,0.0,0.0,66,0.00,,,0.00,0,Wunderground v.1.15,2013-02-10 11:40:00,
2013-02-10 07:00:00,44.1,32.7,30.23,SSW,207,0.0,0.0,64,0.00,,,0.00,0,Wunderground v.1.15,2013-02-10 12:00:00,
2013-02-10 07:10:00,44.8,32.2,30.23,South,177,2.0,4.0,61,0.00,,,0.00,0,Wunderground v.1.15,2013-02-10 12:10:00,
2013-02-10 07:30:00,44.1,32.3,30.23,SSW,209,3.0,5.0,63,0.00,,,0.00,0,Wunderground v.1.15,2013-02-10 12:30:00,
2013-02-10 07:40:00,44.1,31.9,30.23,SW,232,4.0,5.0,62,0.00,,,0.00,5,Wunderground v.1.15,2013-02-10 12:40:00,
2013-02-10 07:50:00,44.8,31.3,30.23,SW,216,4.0,4.0,59,0.00,,,0.00,7,Wunderground v.1.15,2013-02-10 12:50:00,
2013-02-10 08:00:00,45.1,31.2,30.23,SW,225,4.0,4.0,58,0.00,,,0.00,16,Wunderground v.1.15,2013-02-10 13:00:00,
2013-02-10 08:10:00,45.8,31.0,30.23,SW,221,4.0,4.0,56,0.00,,,0.00,37,Wunderground v.1.15,2013-02-10 13:10:00,
2013-02-10 08:21:00,46.5,30.7,30.25,SW,216,5.0,6.0,54,0.00,,,0.00,69,Wunderground v.1.15,2013-02-10 13:21:00,
2013-02-10 08:30:00,47.6,30.3,30.25,SSW,209,6.0,9.0,51,0.00,,,0.00,72,Wunderground v.1.15,2013-02-10 13:30:00,
2013-02-10 08:40:00,48.5,30.2,30.25,SSW,213,7.0,7.0,49,0.00,,,0.00,67,Wunderground v.1.15,2013-02-10 13:40:00,
2013-02-10 08:50:00,48.6,29.8,30.24,SSW,199,8.0,11.0,48,0.00,,,0.00,51,Wunderground v.1.15,2013-02-10 13:50:00,
2013-02-10 09:00:00,48.8,30.0,30.24,South,176,9.0,9.0,48,0.00,,,0.00,62,Wunderground v.1.15,2013-02-10 14:00:00,
2013-02-10 09:10:00,49.1,30.7,30.24,SSW,201,7.0,10.0,49,0.00,,,0.00,83,Wunderground v.1.15,2013-02-10 14:10:00,
2013-02-10 09:21:00,49.4,30.5,30.24,SSW,192,6.0,6.0,48,0.00,,,0.00,83,Wunderground v.1.15,2013-02-10 14:21:00,
2013-02-10 09:30:00,49.8,30.4,30.24,South,184,6.0,8.0,47,0.00,,,0.00,90,Wunderground v.1.15,2013-02-10 14:30:00,
2013-02-10 09:40:00,50.1,30.6,30.24,SW,221,6.0,13.0,47,0.00,,,0.00,114,Wunderground v.1.15,2013-02-10 14:40:00,
2013-02-10 09:50:00,50.7,30.7,30.24,South,176,7.0,8.0,46,0.00,,,0.00,109,Wunderground v.1.15,2013-02-10 14:50:00,
2013-02-10 10:00:00,51.3,30.1,30.24,SSE,155,9.0,13.0,44,0.00,,,0.00,148,Wunderground v.1.15,2013-02-10 15:00:00,
2013-02-10 10:10:00,51.9,30.1,30.24,SSW,202,12.0,12.0,43,0.00,,,0.00,190,Wunderground v.1.15,2013-02-10 15:10:00,
2013-02-10 10:21:00,53.1,28.8,30.22,South,182,12.0,14.0,39,0.00,,,0.00,281,Wunderground v.1.15,2013-02-10 15:21:00,
2013-02-10 10:30:00,53.1,30.0,30.21,SE,143,12.0,12.0,41,0.00,,,0.00,408,Wunderground v.1.15,2013-02-10 15:30:00,
2013-02-10 10:40:00,53.5,29.7,30.21,SE,139,11.0,11.0,40,0.00,,,0.00,209,Wunderground v.1.15,2013-02-10 15:40:00,
2013-02-10 10:50:00,53.5,28.5,30.20,SSW,201,16.0,16.0,38,0.00,,,0.00,165,Wunderground v.1.15,2013-02-10 15:50:00,
2013-02-10 11:00:00,53.8,28.1,30.22,SSW,197,13.0,13.0,37,0.00,,,0.00,153,Wunderground v.1.15,2013-02-10 16:00:00,
2013-02-10 11:10:00,53.9,28.8,30.22,South,170,12.0,14.0,38,0.00,,,0.00,156,Wunderground v.1.15,2013-02-10 16:10:00,
2013-02-10 11:30:00,53.6,27.3,30.19,SSW,202,13.0,18.0,36,0.00,,,0.00,132,Wunderground v.1.15,2013-02-10 16:30:00,
2013-02-10 11:40:00,54.1,28.4,30.19,South,188,11.0,14.0,37,0.00,,,0.00,102,Wunderground v.1.15,2013-02-10 16:40:00,
2013-02-10 11:51:00,54.4,28.0,30.18,SSE,163,11.0,11.0,36,0.00,,,0.00,156,Wunderground v.1.15,2013-02-10 16:51:00,
2013-02-10 12:00:00,54.8,26.2,30.17,South,175,13.0,19.0,33,0.00,,,0.00,204,Wunderground v.1.15,2013-02-10 17:00:00,
2013-02-10 12:10:00,55.1,26.5,30.17,South,188,11.0,14.0,33,0.00,,,0.00,104,Wunderground v.1.15,2013-02-10 17:10:00,
2013-02-10 12:30:00,55.6,26.2,30.14,South,171,12.0,22.0,32,0.00,,,0.00,118,Wunderground v.1.15,2013-02-10 17:30:00,
2013-02-10 12:40:00,55.6,26.9,30.14,SSW,212,12.0,15.0,33,0.00,,,0.00,67,Wunderground v.1.15,2013-02-10 17:40:00,
2013-02-10 12:51:00,55.6,26.9,30.14,SE,134,13.0,13.0,33,0.00,,,0.00,125,Wunderground v.1.15,2013-02-10 17:51:00,
2013-02-10 13:00:00,55.9,27.2,30.12,SSE,159,11.0,11.0,33,0.00,,,0.00,127,Wunderground v.1.15,2013-02-10 18:00:00,
2013-02-10 13:20:00,55.7,29.8,30.12,SSW,196,10.0,10.0,37,0.00,,,0.00,21,Wunderground v.1.15,2013-02-10 18:20:00,
2013-02-10 13:30:00,55.6,31.0,30.11,South,184,13.0,19.0,39,0.00,,,0.00,35,Wunderground v.1.15,2013-02-10 18:30:00,
2013-02-10 13:40:00,55.6,32.2,30.11,South,173,13.0,13.0,41,0.00,,,0.00,19,Wunderground v.1.15,2013-02-10 18:40:00,
2013-02-10 13:50:00,54.4,38.6,30.11,SSW,209,8.0,8.0,55,0.00,,,0.00,18,Wunderground v.1.15,2013-02-10 18:50:00,
2013-02-10 14:00:00,52.9,39.8,30.10,SSW,203,5.0,7.0,61,0.00,,,0.00,26,Wunderground v.1.15,2013-02-10 19:00:00,
2013-02-10 14:10:00,51.9,41.7,30.10,SSW,201,6.0,6.0,68,0.00,,,0.00,32,Wunderground v.1.15,2013-02-10 19:10:00,
2013-02-10 14:21:00,51.1,42.4,30.08,SSW,201,5.0,5.0,72,0.00,,,0.00,37,Wunderground v.1.15,2013-02-10 19:21:00,
2013-02-10 14:30:00,50.5,42.5,30.08,SW,221,6.0,6.0,74,0.00,,,0.01,26,Wunderground v.1.15,2013-02-10 19:30:00,
2013-02-10 14:40:00,49.9,43.0,30.08,SW,226,3.0,5.0,77,0.04,,,0.02,30,Wunderground v.1.15,2013-02-10 19:40:00,
2013-02-10 14:50:00,49.5,43.6,30.07,SW,233,3.0,4.0,80,0.04,,,0.02,26,Wunderground v.1.15,2013-02-10 19:50:00,
2013-02-10 15:00:00,49.2,43.9,30.06,SSW,208,3.0,3.0,82,0.00,,,0.03,21,Wunderground v.1.15,2013-02-10 20:00:00,
2013-02-10 15:10:00,49.1,44.5,30.06,SSW,194,4.0,4.0,84,0.38,,,0.06,21,Wunderground v.1.15,2013-02-10 20:10:00,
2013-02-10 15:21:00,48.8,44.8,30.06,SSW,192,3.0,3.0,86,0.10,,,0.07,16,Wunderground v.1.15,2013-02-10 20:21:00,
2013-02-10 15:30:00,48.8,45.4,30.05,SSW,192,1.0,1.0,88,0.21,,,0.09,14,Wunderground v.1.15,2013-02-10 20:30:00,
2013-02-10 15:40:00,48.6,45.5,30.05,SSW,192,0.0,0.0,89,0.11,,,0.11,12,Wunderground v.1.15,2013-02-10 20:40:00,
2013-02-10 16:00:00,48.3,45.8,30.06,WNW,300,0.0,0.0,91,0.09,,,0.14,0,Wunderground v.1.15,2013-02-10 21:00:00,
2013-02-10 16:10:00,48.3,45.8,30.06,South,177,1.0,1.0,91,0.20,,,0.16,0,Wunderground v.1.15,2013-02-10 21:10:00,
2013-02-10 16:21:00,48.5,46.3,30.07,SSW,207,6.0,10.0,92,0.44,,,0.20,5,Wunderground v.1.15,2013-02-10 21:21:00,
2013-02-10 16:30:00,48.6,46.4,30.05,South,184,8.0,10.0,92,0.47,,,0.26,7,Wunderground v.1.15,2013-02-10 21:30:00,
2013-02-10 16:40:00,48.6,46.4,30.05,South,175,8.0,8.0,92,0.16,,,0.30,7,Wunderground v.1.15,2013-02-10 21:40:00,
2013-02-10 16:50:00,48.8,46.6,30.06,SSW,213,9.0,10.0,92,0.30,,,0.34,0,Wunderground v.1.15,2013-02-10 21:50:00,
2013-02-10 17:00:00,48.9,47.0,30.06,SSW,198,7.0,7.0,93,0.20,,,0.37,5,Wunderground v.1.15,2013-02-10 22:00:00,
2013-02-10 17:10:00,49.1,47.2,30.06,South,190,10.0,18.0,93,0.39,,,0.42,12,Wunderground v.1.15,2013-02-10 22:10:00,
2013-02-10 17:20:00,49.1,47.2,30.03,WSW,247,10.0,10.0,93,0.10,,,0.44,5,Wunderground v.1.15,2013-02-10 22:20:00,
2013-02-10 17:30:00,49.2,47.3,30.09,WSW,242,8.0,8.0,93,0.07,,,0.45,0,Wunderground v.1.15,2013-02-10 22:30:00,
2013-02-10 17:40:00,49.4,47.5,30.09,SSW,209,10.0,10.0,93,0.04,,,0.46,0,Wunderground v.1.15,2013-02-10 22:40:00,
2013-02-10 18:00:00,49.6,47.7,30.09,SW,220,5.0,5.0,93,0.05,,,0.47,0,Wunderground v.1.15,2013-02-10 23:00:00,
2013-02-10 18:10:00,49.6,47.7,30.09,SSW,210,7.0,7.0,93,0.06,,,0.48,0,Wunderground v.1.15,2013-02-10 23:10:00,
2013-02-10 18:21:00,49.8,47.9,30.08,SSW,194,8.0,8.0,93,0.00,,,0.48,0,Wunderground v.1.15,2013-02-10 23:21:00,
2013-02-10 18:30:00,49.9,48.0,30.09,SSW,200,6.0,6.0,93,0.00,,,0.49,0,Wunderground v.1.15,2013-02-10 23:30:00,
2013-02-10 18:40:00,50.1,48.2,30.09,SSW,211,5.0,6.0,93,0.04,,,0.50,0,Wunderground v.1.15,2013-02-10 23:40:00,
2013-02-10 18:50:00,50.2,48.3,30.08,SSW,198,9.0,14.0,93,0.04,,,0.51,0,Wunderground v.1.15,2013-02-10 23:50:00,
2013-02-10 19:00:00,50.5,48.6,30.04,South,172,13.0,13.0,93,0.07,,,0.52,0,Wunderground v.1.15,2013-02-11 00:00:00,
2013-02-10 19:10:00,50.5,48.6,30.04,SSW,206,13.0,13.0,93,0.09,,,0.53,0,Wunderground v.1.15,2013-02-11 00:10:00,
2013-02-10 19:21:00,50.5,48.3,30.07,SW,226,11.0,11.0,92,0.07,,,0.54,0,Wunderground v.1.15,2013-02-11 00:21:00,
2013-02-10 19:30:00,50.7,48.7,30.03,SSW,209,11.0,16.0,93,0.06,,,0.55,0,Wunderground v.1.15,2013-02-11 00:30:00,
2013-02-10 19:40:00,50.7,48.7,30.03,South,190,11.0,11.0,93,0.07,,,0.56,0,Wunderground v.1.15,2013-02-11 00:40:00,
2013-02-10 20:00:00,51.0,48.8,30.03,South,180,13.0,13.0,92,0.00,,,0.56,0,Wunderground v.1.15,2013-02-11 01:00:00,
2013-02-10 20:10:00,51.1,48.9,30.03,SW,223,11.0,15.0,92,0.00,,,0.56,0,Wunderground v.1.15,2013-02-11 01:10:00,
2013-02-10 20:20:00,51.3,48.8,30.03,WSW,238,8.0,8.0,91,0.00,,,0.56,0,Wunderground v.1.15,2013-02-11 01:20:00,
2013-02-10 20:30:00,51.4,48.9,30.05,SW,215,6.0,6.0,91,0.00,,,0.56,0,Wunderground v.1.15,2013-02-11 01:30:00,
2013-02-10 20:40:00,51.4,48.9,30.05,SW,225,6.0,6.0,91,0.00,,,0.56,0,Wunderground v.1.15,2013-02-11 01:40:00,
2013-02-10 20:50:00,51.6,49.1,30.06,SSW,194,6.0,6.0,91,0.00,,,0.56,0,Wunderground v.1.15,2013-02-11 01:50:00,
2013-02-10 21:00:00,51.6,49.1,30.04,South,190,7.0,7.0,91,0.00,,,0.56,0,Wunderground v.1.15,2013-02-11 02:00:00,
2013-02-10 21:10:00,51.7,49.2,30.04,SW,232,5.0,5.0,91,0.00,,,0.56,0,Wunderground v.1.15,2013-02-11 02:10:00,
2013-02-10 21:21:00,51.7,49.2,30.03,SW,216,7.0,7.0,91,0.00,,,0.56,0,Wunderground v.1.15,2013-02-11 02:21:00,
2013-02-10 21:30:00,51.9,49.4,30.03,SSW,193,8.0,8.0,91,0.00,,,0.56,0,Wunderground v.1.15,2013-02-11 02:30:00,
2013-02-10 21:40:00,51.9,49.4,30.03,SW,214,6.0,6.0,91,0.00,,,0.56,0,Wunderground v.1.15,2013-02-11 02:40:00,
2013-02-10 21:50:00,51.9,49.4,30.02,SSW,206,7.0,7.0,91,0.00,,,0.56,0,Wunderground v.1.15,2013-02-11 02:50:00,